Weather at Belfast International Airport

Public forecast

Using degrees Celsius for public forecast. Weather courtesy of forecast.io.

Current aviation weather report (METAR) for Belfast International Airport

2022/12/10 00:50 (retrieved 32 minutes ago)

EGAA 100050Z AUTO 24006KT 9999 FEW031/// //////TCU 00/M01 Q1007

Closest aviation forecast (TAF) to Belfast International Airport

Closest forecast is Ireland West Knock Airport, 101.6 nm (188.3 km) WSW.

2022/12/09 22:15 (retrieved 3 hours ago)

TAF TAF EIKN 092209Z 0922/1018 CNL